sensor_id;sensor_type;location;lat;lon;timestamp;P1;durP1;ratioP1;P2;durP2;ratioP2
62724;SDS011;49026;52.600;4.694;2023-03-12T00:00:41;15.05;;;4.55;;
62724;SDS011;49026;52.600;4.694;2023-03-12T00:03:07;7.63;;;4.05;;
62724;SDS011;49026;52.600;4.694;2023-03-12T00:05:34;6.63;;;3.58;;
62724;SDS011;49026;52.600;4.694;2023-03-12T00:08:01;10.93;;;4.07;;
62724;SDS011;49026;52.600;4.694;2023-03-12T00:10:26;8.27;;;2.90;;
62724;SDS011;49026;52.600;4.694;2023-03-12T00:12:52;6.00;;;2.45;;
62724;SDS011;49026;52.600;4.694;2023-03-12T00:15:17;10.95;;;4.32;;
62724;SDS011;49026;52.600;4.694;2023-03-12T00:17:42;4.25;;;2.03;;
62724;SDS011;49026;52.600;4.694;2023-03-12T00:20:10;6.70;;;1.85;;
62724;SDS011;49026;52.600;4.694;2023-03-12T00:22:38;7.72;;;3.30;;
62724;SDS011;49026;52.600;4.694;2023-03-12T00:25:04;9.57;;;3.20;;
62724;SDS011;49026;52.600;4.694;2023-03-12T00:27:31;35.35;;;4.43;;
62724;SDS011;49026;52.600;4.694;2023-03-12T00:29:56;9.30;;;3.05;;
62724;SDS011;49026;52.600;4.694;2023-03-12T00:32:22;11.32;;;3.80;;
62724;SDS011;49026;52.600;4.694;2023-03-12T00:34:53;9.50;;;3.67;;
62724;SDS011;49026;52.600;4.694;2023-03-12T00:37:20;7.22;;;2.83;;
62724;SDS011;49026;52.600;4.694;2023-03-12T00:39:46;3.67;;;1.70;;
62724;SDS011;49026;52.600;4.694;2023-03-12T00:42:11;5.82;;;3.08;;
62724;SDS011;49026;52.600;4.694;2023-03-12T00:44:37;5.63;;;2.13;;
62724;SDS011;49026;52.600;4.694;2023-03-12T00:47:02;8.07;;;3.40;;
62724;SDS011;49026;52.600;4.694;2023-03-12T00:49:28;10.98;;;3.70;;
62724;SDS011;49026;52.600;4.694;2023-03-12T00:51:53;7.25;;;2.92;;
62724;SDS011;49026;52.600;4.694;2023-03-12T00:54:19;11.50;;;3.22;;
62724;SDS011;49026;52.600;4.694;2023-03-12T00:56:47;9.32;;;3.17;;
62724;SDS011;49026;52.600;4.694;2023-03-12T00:59:13;6.82;;;3.05;;
62724;SDS011;49026;52.600;4.694;2023-03-12T01:01:39;6.00;;;2.58;;
62724;SDS011;49026;52.600;4.694;2023-03-12T01:04:07;8.57;;;3.20;;
62724;SDS011;49026;52.600;4.694;2023-03-12T01:06:33;9.45;;;3.03;;
62724;SDS011;49026;52.600;4.694;2023-03-12T01:08:59;5.13;;;2.47;;
62724;SDS011;49026;52.600;4.694;2023-03-12T01:11:25;8.43;;;2.75;;
62724;SDS011;49026;52.600;4.694;2023-03-12T01:13:51;7.63;;;3.25;;
62724;SDS011;49026;52.600;4.694;2023-03-12T01:16:16;7.55;;;2.80;;
62724;SDS011;49026;52.600;4.694;2023-03-12T01:18:41;17.77;;;3.65;;
62724;SDS011;49026;52.600;4.694;2023-03-12T01:21:09;6.40;;;2.40;;
62724;SDS011;49026;52.600;4.694;2023-03-12T01:23:37;4.78;;;2.63;;
62724;SDS011;49026;52.600;4.694;2023-03-12T01:26:02;5.95;;;2.90;;
62724;SDS011;49026;52.600;4.694;2023-03-12T01:28:27;3.83;;;1.88;;
62724;SDS011;49026;52.600;4.694;2023-03-12T01:30:53;7.28;;;3.20;;
62724;SDS011;49026;52.600;4.694;2023-03-12T01:33:18;12.82;;;2.33;;
62724;SDS011;49026;52.600;4.694;2023-03-12T01:35:46;10.60;;;3.25;;
62724;SDS011;49026;52.600;4.694;2023-03-12T01:38:13;8.15;;;3.10;;
62724;SDS011;49026;52.600;4.694;2023-03-12T01:40:39;4.90;;;2.47;;
62724;SDS011;49026;52.600;4.694;2023-03-12T01:43:25;6.95;;;3.28;;
62724;SDS011;49026;52.600;4.694;2023-03-12T01:51:16;7.28;;;2.80;;
62724;SDS011;49026;52.600;4.694;2023-03-12T01:53:44;12.23;;;3.03;;
62724;SDS011;49026;52.600;4.694;2023-03-12T01:58:42;11.43;;;3.15;;
62724;SDS011;49026;52.600;4.694;2023-03-12T02:01:11;5.22;;;2.97;;
62724;SDS011;49026;52.600;4.694;2023-03-12T02:03:39;7.05;;;2.65;;
62724;SDS011;49026;52.600;4.694;2023-03-12T02:06:06;6.60;;;3.45;;
62724;SDS011;49026;52.600;4.694;2023-03-12T02:08:40;7.43;;;3.22;;
62724;SDS011;49026;52.600;4.694;2023-03-12T02:11:11;3.65;;;2.20;;
62724;SDS011;49026;52.600;4.694;2023-03-12T02:13:37;6.03;;;3.50;;
62724;SDS011;49026;52.600;4.694;2023-03-12T02:16:03;9.38;;;3.70;;
62724;SDS011;49026;52.600;4.694;2023-03-12T02:18:29;8.82;;;3.30;;
62724;SDS011;49026;52.600;4.694;2023-03-12T02:26:43;9.90;;;2.83;;
62724;SDS011;49026;52.600;4.694;2023-03-12T02:29:10;7.97;;;3.03;;
62724;SDS011;49026;52.600;4.694;2023-03-12T02:31:37;8.55;;;3.25;;
62724;SDS011;49026;52.600;4.694;2023-03-12T02:34:14;6.60;;;3.03;;
62724;SDS011;49026;52.600;4.694;2023-03-12T02:36:39;6.40;;;2.95;;
62724;SDS011;49026;52.600;4.694;2023-03-12T02:39:04;5.80;;;3.00;;
62724;SDS011;49026;52.600;4.694;2023-03-12T02:41:31;6.90;;;3.10;;
62724;SDS011;49026;52.600;4.694;2023-03-12T02:46:28;4.25;;;2.35;;
62724;SDS011;49026;52.600;4.694;2023-03-12T02:48:57;5.60;;;3.03;;
62724;SDS011;49026;52.600;4.694;2023-03-12T02:51:23;6.85;;;2.80;;
62724;SDS011;49026;52.600;4.694;2023-03-12T02:53:48;2.50;;;1.77;;
62724;SDS011;49026;52.600;4.694;2023-03-12T02:56:20;4.28;;;2.55;;
62724;SDS011;49026;52.600;4.694;2023-03-12T02:58:55;5.93;;;2.30;;
62724;SDS011;49026;52.600;4.694;2023-03-12T03:01:23;11.07;;;3.17;;
62724;SDS011;49026;52.600;4.694;2023-03-12T03:03:48;6.75;;;3.00;;
62724;SDS011;49026;52.600;4.694;2023-03-12T03:06:14;6.10;;;2.67;;
62724;SDS011;49026;52.600;4.694;2023-03-12T03:08:41;7.03;;;2.67;;
62724;SDS011;49026;52.600;4.694;2023-03-12T03:11:06;5.55;;;2.80;;
62724;SDS011;49026;52.600;4.694;2023-03-12T03:13:32;3.58;;;1.70;;
62724;SDS011;49026;52.600;4.694;2023-03-12T03:15:58;8.85;;;2.70;;
62724;SDS011;49026;52.600;4.694;2023-03-12T03:18:26;7.78;;;3.15;;
62724;SDS011;49026;52.600;4.694;2023-03-12T03:20:59;3.10;;;1.45;;
62724;SDS011;49026;52.600;4.694;2023-03-12T03:23:29;11.50;;;2.65;;
62724;SDS011;49026;52.600;4.694;2023-03-12T03:25:54;4.22;;;1.85;;
62724;SDS011;49026;52.600;4.694;2023-03-12T03:28:21;4.13;;;2.30;;
62724;SDS011;49026;52.600;4.694;2023-03-12T03:30:50;1.98;;;1.30;;
62724;SDS011;49026;52.600;4.694;2023-03-12T03:33:17;7.60;;;2.70;;
62724;SDS011;49026;52.600;4.694;2023-03-12T03:35:42;4.90;;;1.88;;
62724;SDS011;49026;52.600;4.694;2023-03-12T03:38:10;8.63;;;2.78;;
62724;SDS011;49026;52.600;4.694;2023-03-12T03:40:35;7.20;;;3.15;;
62724;SDS011;49026;52.600;4.694;2023-03-12T03:43:03;3.50;;;1.65;;
62724;SDS011;49026;52.600;4.694;2023-03-12T03:45:28;7.80;;;3.15;;
62724;SDS011;49026;52.600;4.694;2023-03-12T03:47:53;5.20;;;2.20;;
62724;SDS011;49026;52.600;4.694;2023-03-12T03:50:19;9.93;;;3.10;;
62724;SDS011;49026;52.600;4.694;2023-03-12T03:52:44;6.43;;;3.05;;
62724;SDS011;49026;52.600;4.694;2023-03-12T03:55:09;7.55;;;3.28;;
62724;SDS011;49026;52.600;4.694;2023-03-12T03:57:34;5.00;;;2.80;;
62724;SDS011;49026;52.600;4.694;2023-03-12T04:00:00;5.40;;;2.88;;
62724;SDS011;49026;52.600;4.694;2023-03-12T04:02:26;3.65;;;2.72;;
62724;SDS011;49026;52.600;4.694;2023-03-12T04:04:55;5.28;;;3.20;;
62724;SDS011;49026;52.600;4.694;2023-03-12T04:07:21;5.60;;;2.67;;
62724;SDS011;49026;52.600;4.694;2023-03-12T04:09:46;10.23;;;3.17;;
62724;SDS011;49026;52.600;4.694;2023-03-12T04:12:11;10.10;;;2.80;;
62724;SDS011;49026;52.600;4.694;2023-03-12T04:14:40;8.07;;;1.88;;
62724;SDS011;49026;52.600;4.694;2023-03-12T04:17:06;4.77;;;2.67;;
62724;SDS011;49026;52.600;4.694;2023-03-12T04:19:32;4.30;;;1.88;;
62724;SDS011;49026;52.600;4.694;2023-03-12T04:21:59;4.78;;;2.03;;
62724;SDS011;49026;52.600;4.694;2023-03-12T04:24:25;6.15;;;2.25;;
62724;SDS011;49026;52.600;4.694;2023-03-12T04:26:50;8.40;;;2.20;;
62724;SDS011;49026;52.600;4.694;2023-03-12T04:29:18;8.10;;;2.25;;
62724;SDS011;49026;52.600;4.694;2023-03-12T04:31:44;3.47;;;2.03;;
62724;SDS011;49026;52.600;4.694;2023-03-12T04:34:10;6.05;;;1.95;;
62724;SDS011;49026;52.600;4.694;2023-03-12T04:36:36;2.63;;;1.88;;
62724;SDS011;49026;52.600;4.694;2023-03-12T04:39:02;5.30;;;2.22;;
62724;SDS011;49026;52.600;4.694;2023-03-12T04:41:31;6.55;;;2.22;;
62724;SDS011;49026;52.600;4.694;2023-03-12T04:43:57;4.28;;;2.00;;
62724;SDS011;49026;52.600;4.694;2023-03-12T04:46:23;4.38;;;1.80;;
62724;SDS011;49026;52.600;4.694;2023-03-12T04:48:48;4.50;;;1.92;;
62724;SDS011;49026;52.600;4.694;2023-03-12T04:51:13;2.65;;;1.30;;
62724;SDS011;49026;52.600;4.694;2023-03-12T04:53:39;8.20;;;1.55;;
62724;SDS011;49026;52.600;4.694;2023-03-12T04:56:04;3.03;;;1.40;;
62724;SDS011;49026;52.600;4.694;2023-03-12T04:58:32;4.18;;;2.22;;
62724;SDS011;49026;52.600;4.694;2023-03-12T05:03:26;3.90;;;1.70;;
62724;SDS011;49026;52.600;4.694;2023-03-12T05:05:51;2.30;;;1.38;;
62724;SDS011;49026;52.600;4.694;2023-03-12T05:08:16;5.22;;;1.80;;
62724;SDS011;49026;52.600;4.694;2023-03-12T05:10:44;5.13;;;1.67;;
62724;SDS011;49026;52.600;4.694;2023-03-12T05:13:17;7.68;;;2.15;;
62724;SDS011;49026;52.600;4.694;2023-03-12T05:15:46;2.22;;;1.20;;
62724;SDS011;49026;52.600;4.694;2023-03-12T05:18:14;4.03;;;2.00;;
62724;SDS011;49026;52.600;4.694;2023-03-12T05:20:40;2.30;;;1.40;;
62724;SDS011;49026;52.600;4.694;2023-03-12T05:23:06;8.35;;;2.17;;
62724;SDS011;49026;52.600;4.694;2023-03-12T05:25:31;3.88;;;2.00;;
62724;SDS011;49026;52.600;4.694;2023-03-12T05:27:58;4.57;;;1.98;;
62724;SDS011;49026;52.600;4.694;2023-03-12T05:30:24;4.28;;;1.75;;
62724;SDS011;49026;52.600;4.694;2023-03-12T05:32:49;9.98;;;2.58;;
62724;SDS011;49026;52.600;4.694;2023-03-12T05:35:14;5.18;;;2.35;;
62724;SDS011;49026;52.600;4.694;2023-03-12T05:37:40;5.80;;;2.03;;
62724;SDS011;49026;52.600;4.694;2023-03-12T05:40:08;6.30;;;1.80;;
62724;SDS011;49026;52.600;4.694;2023-03-12T05:42:37;6.53;;;1.67;;
62724;SDS011;49026;52.600;4.694;2023-03-12T05:45:03;5.68;;;2.45;;
62724;SDS011;49026;52.600;4.694;2023-03-12T05:47:29;7.25;;;2.83;;
62724;SDS011;49026;52.600;4.694;2023-03-12T05:49:57;5.88;;;2.35;;
62724;SDS011;49026;52.600;4.694;2023-03-12T05:52:22;3.28;;;1.73;;
62724;SDS011;49026;52.600;4.694;2023-03-12T05:54:50;5.03;;;2.17;;
62724;SDS011;49026;52.600;4.694;2023-03-12T05:57:19;8.13;;;2.53;;
62724;SDS011;49026;52.600;4.694;2023-03-12T05:59:44;8.48;;;2.95;;
62724;SDS011;49026;52.600;4.694;2023-03-12T06:02:10;11.77;;;3.30;;
62724;SDS011;49026;52.600;4.694;2023-03-12T06:04:35;5.47;;;2.55;;
62724;SDS011;49026;52.600;4.694;2023-03-12T06:07:00;6.30;;;2.20;;
62724;SDS011;49026;52.600;4.694;2023-03-12T06:09:26;5.32;;;2.30;;
62724;SDS011;49026;52.600;4.694;2023-03-12T06:11:51;5.78;;;2.42;;
62724;SDS011;49026;52.600;4.694;2023-03-12T06:14:16;7.05;;;3.17;;
62724;SDS011;49026;52.600;4.694;2023-03-12T06:16:41;8.25;;;2.42;;
62724;SDS011;49026;52.600;4.694;2023-03-12T06:19:07;4.75;;;2.10;;
62724;SDS011;49026;52.600;4.694;2023-03-12T06:21:33;15.50;;;3.95;;
62724;SDS011;49026;52.600;4.694;2023-03-12T06:24:00;5.63;;;3.05;;
62724;SDS011;49026;52.600;4.694;2023-03-12T06:26:26;7.63;;;2.42;;
62724;SDS011;49026;52.600;4.694;2023-03-12T06:28:52;9.73;;;3.65;;
62724;SDS011;49026;52.600;4.694;2023-03-12T06:31:18;9.18;;;2.95;;
62724;SDS011;49026;52.600;4.694;2023-03-12T06:33:45;7.35;;;2.90;;
62724;SDS011;49026;52.600;4.694;2023-03-12T06:36:13;5.47;;;3.08;;
62724;SDS011;49026;52.600;4.694;2023-03-12T06:38:39;8.20;;;3.25;;
62724;SDS011;49026;52.600;4.694;2023-03-12T06:41:09;9.55;;;4.05;;
62724;SDS011;49026;52.600;4.694;2023-03-12T06:43:38;3.45;;;2.28;;
62724;SDS011;49026;52.600;4.694;2023-03-12T06:46:05;4.80;;;2.97;;
62724;SDS011;49026;52.600;4.694;2023-03-12T06:48:34;5.38;;;2.90;;
62724;SDS011;49026;52.600;4.694;2023-03-12T06:51:05;4.30;;;3.00;;
62724;SDS011;49026;52.600;4.694;2023-03-12T06:53:35;7.15;;;4.07;;
62724;SDS011;49026;52.600;4.694;2023-03-12T06:56:00;9.45;;;4.15;;
62724;SDS011;49026;52.600;4.694;2023-03-12T06:58:29;3.65;;;2.45;;
62724;SDS011;49026;52.600;4.694;2023-03-12T07:00:57;7.13;;;4.10;;
62724;SDS011;49026;52.600;4.694;2023-03-12T07:03:23;8.73;;;5.13;;
62724;SDS011;49026;52.600;4.694;2023-03-12T07:05:51;3.80;;;2.40;;
62724;SDS011;49026;52.600;4.694;2023-03-12T07:08:20;7.18;;;4.63;;
62724;SDS011;49026;52.600;4.694;2023-03-12T07:10:45;11.27;;;5.32;;
62724;SDS011;49026;52.600;4.694;2023-03-12T07:13:10;5.63;;;2.92;;
62724;SDS011;49026;52.600;4.694;2023-03-12T07:15:36;12.45;;;4.85;;
62724;SDS011;49026;52.600;4.694;2023-03-12T07:18:08;5.32;;;4.10;;
62724;SDS011;49026;52.600;4.694;2023-03-12T07:20:35;8.55;;;5.13;;
62724;SDS011;49026;52.600;4.694;2023-03-12T07:23:02;7.10;;;3.70;;
62724;SDS011;49026;52.600;4.694;2023-03-12T07:25:28;10.05;;;5.70;;
62724;SDS011;49026;52.600;4.694;2023-03-12T07:27:53;5.85;;;3.70;;
62724;SDS011;49026;52.600;4.694;2023-03-12T07:30:18;8.23;;;5.63;;
62724;SDS011;49026;52.600;4.694;2023-03-12T07:32:47;8.05;;;4.50;;
62724;SDS011;49026;52.600;4.694;2023-03-12T07:35:22;6.60;;;4.45;;
62724;SDS011;49026;52.600;4.694;2023-03-12T07:37:47;13.75;;;5.78;;
62724;SDS011;49026;52.600;4.694;2023-03-12T07:40:13;16.35;;;7.65;;
62724;SDS011;49026;52.600;4.694;2023-03-12T07:42:43;13.43;;;6.47;;
62724;SDS011;49026;52.600;4.694;2023-03-12T07:45:09;7.10;;;4.32;;
62724;SDS011;49026;52.600;4.694;2023-03-12T07:47:36;16.27;;;7.18;;
62724;SDS011;49026;52.600;4.694;2023-03-12T07:50:02;7.32;;;4.35;;
62724;SDS011;49026;52.600;4.694;2023-03-12T07:52:27;6.97;;;4.32;;
62724;SDS011;49026;52.600;4.694;2023-03-12T07:54:53;9.75;;;5.60;;
62724;SDS011;49026;52.600;4.694;2023-03-12T07:57:21;13.93;;;8.85;;
62724;SDS011;49026;52.600;4.694;2023-03-12T07:59:46;18.40;;;10.90;;
62724;SDS011;49026;52.600;4.694;2023-03-12T08:02:15;18.10;;;10.73;;
62724;SDS011;49026;52.600;4.694;2023-03-12T08:04:40;13.80;;;7.82;;
62724;SDS011;49026;52.600;4.694;2023-03-12T08:07:05;12.23;;;6.85;;
62724;SDS011;49026;52.600;4.694;2023-03-12T08:09:31;16.88;;;9.10;;
62724;SDS011;49026;52.600;4.694;2023-03-12T08:11:59;17.25;;;7.50;;
62724;SDS011;49026;52.600;4.694;2023-03-12T08:14:25;15.70;;;9.25;;
62724;SDS011;49026;52.600;4.694;2023-03-12T08:16:53;15.98;;;10.18;;
62724;SDS011;49026;52.600;4.694;2023-03-12T08:19:18;17.73;;;10.60;;
62724;SDS011;49026;52.600;4.694;2023-03-12T08:21:46;13.23;;;8.40;;
62724;SDS011;49026;52.600;4.694;2023-03-12T08:24:12;18.27;;;11.57;;
62724;SDS011;49026;52.600;4.694;2023-03-12T08:26:37;17.67;;;10.90;;
62724;SDS011;49026;52.600;4.694;2023-03-12T08:29:04;20.15;;;11.65;;
62724;SDS011;49026;52.600;4.694;2023-03-12T08:31:30;30.05;;;11.38;;
62724;SDS011;49026;52.600;4.694;2023-03-12T08:33:58;16.85;;;10.77;;
62724;SDS011;49026;52.600;4.694;2023-03-12T08:36:23;28.50;;;14.52;;
62724;SDS011;49026;52.600;4.694;2023-03-12T08:38:48;20.10;;;12.25;;
62724;SDS011;49026;52.600;4.694;2023-03-12T08:41:14;86.82;;;17.15;;
62724;SDS011;49026;52.600;4.694;2023-03-12T08:43:42;155.80;;;19.85;;
62724;SDS011;49026;52.600;4.694;2023-03-12T08:46:07;46.03;;;17.33;;
62724;SDS011;49026;52.600;4.694;2023-03-12T08:48:33;318.15;;;29.80;;
62724;SDS011;49026;52.600;4.694;2023-03-12T08:50:59;269.85;;;25.80;;
62724;SDS011;49026;52.600;4.694;2023-03-12T08:53:28;33.77;;;16.07;;
62724;SDS011;49026;52.600;4.694;2023-03-12T08:55:54;124.13;;;22.85;;
62724;SDS011;49026;52.600;4.694;2023-03-12T08:58:20;53.45;;;19.92;;
62724;SDS011;49026;52.600;4.694;2023-03-12T09:00:48;21.60;;;10.43;;
62724;SDS011;49026;52.600;4.694;2023-03-12T09:03:14;39.08;;;15.75;;
62724;SDS011;49026;52.600;4.694;2023-03-12T09:05:42;153.52;;;23.80;;
62724;SDS011;49026;52.600;4.694;2023-03-12T09:08:11;568.50;;;42.88;;
62724;SDS011;49026;52.600;4.694;2023-03-12T09:10:37;45.05;;;16.77;;
62724;SDS011;49026;52.600;4.694;2023-03-12T09:13:03;74.28;;;18.17;;
62724;SDS011;49026;52.600;4.694;2023-03-12T09:15:32;146.95;;;19.40;;
62724;SDS011;49026;52.600;4.694;2023-03-12T09:17:57;58.42;;;11.63;;
62724;SDS011;49026;52.600;4.694;2023-03-12T09:20:23;65.97;;;12.60;;
62724;SDS011;49026;52.600;4.694;2023-03-12T09:22:52;118.33;;;13.40;;
62724;SDS011;49026;52.600;4.694;2023-03-12T09:25:19;59.60;;;11.00;;
62724;SDS011;49026;52.600;4.694;2023-03-12T09:27:47;138.43;;;14.43;;
62724;SDS011;49026;52.600;4.694;2023-03-12T09:30:16;34.13;;;7.97;;
62724;SDS011;49026;52.600;4.694;2023-03-12T09:32:49;30.65;;;7.95;;
62724;SDS011;49026;52.600;4.694;2023-03-12T09:37:42;44.58;;;8.48;;
62724;SDS011;49026;52.600;4.694;2023-03-12T09:40:14;69.43;;;10.77;;
62724;SDS011;49026;52.600;4.694;2023-03-12T09:42:46;36.13;;;8.73;;
62724;SDS011;49026;52.600;4.694;2023-03-12T09:45:20;25.58;;;8.15;;
62724;SDS011;49026;52.600;4.694;2023-03-12T09:47:52;35.40;;;9.73;;
62724;SDS011;49026;52.600;4.694;2023-03-12T09:50:31;41.08;;;10.35;;
62724;SDS011;49026;52.600;4.694;2023-03-12T09:55:49;50.85;;;7.28;;
62724;SDS011;49026;52.600;4.694;2023-03-12T10:00:46;111.80;;;10.73;;
62724;SDS011;49026;52.600;4.694;2023-03-12T10:03:22;37.47;;;8.02;;
62724;SDS011;49026;52.600;4.694;2023-03-12T10:08:32;26.58;;;5.97;;
62724;SDS011;49026;52.600;4.694;2023-03-12T10:16:48;34.40;;;6.38;;
62724;SDS011;49026;52.600;4.694;2023-03-12T10:19:34;35.38;;;6.20;;
62724;SDS011;49026;52.600;4.694;2023-03-12T10:22:09;37.22;;;5.75;;
62724;SDS011;49026;52.600;4.694;2023-03-12T10:24:48;23.77;;;4.88;;
62724;SDS011;49026;52.600;4.694;2023-03-12T10:27:34;31.42;;;4.60;;
62724;SDS011;49026;52.600;4.694;2023-03-12T10:30:12;31.63;;;5.63;;
62724;SDS011;49026;52.600;4.694;2023-03-12T10:32:43;31.90;;;6.65;;
62724;SDS011;49026;52.600;4.694;2023-03-12T10:35:21;35.72;;;5.60;;
62724;SDS011;49026;52.600;4.694;2023-03-12T10:40:22;20.50;;;3.88;;
62724;SDS011;49026;52.600;4.694;2023-03-12T10:42:52;17.73;;;3.50;;
62724;SDS011;49026;52.600;4.694;2023-03-12T10:45:39;21.85;;;4.00;;
62724;SDS011;49026;52.600;4.694;2023-03-12T10:48:24;29.20;;;5.07;;
62724;SDS011;49026;52.600;4.694;2023-03-12T10:50:59;23.75;;;4.22;;
62724;SDS011;49026;52.600;4.694;2023-03-12T10:53:31;25.85;;;4.43;;
62724;SDS011;49026;52.600;4.694;2023-03-12T10:56:08;26.40;;;4.88;;
62724;SDS011;49026;52.600;4.694;2023-03-12T10:58:37;27.27;;;4.45;;
62724;SDS011;49026;52.600;4.694;2023-03-12T11:03:43;21.00;;;4.10;;
62724;SDS011;49026;52.600;4.694;2023-03-12T11:06:10;23.20;;;3.80;;
62724;SDS011;49026;52.600;4.694;2023-03-12T11:09:32;16.08;;;2.90;;
62724;SDS011;49026;52.600;4.694;2023-03-12T11:11:34;38.25;;;5.88;;
62724;SDS011;49026;52.600;4.694;2023-03-12T11:14:04;19.05;;;3.92;;
62724;SDS011;49026;52.600;4.694;2023-03-12T11:16:32;28.30;;;6.22;;
62724;SDS011;49026;52.600;4.694;2023-03-12T11:19:00;34.03;;;5.28;;
62724;SDS011;49026;52.600;4.694;2023-03-12T11:21:28;24.98;;;4.40;;
62724;SDS011;49026;52.600;4.694;2023-03-12T11:26:21;20.23;;;4.30;;
62724;SDS011;49026;52.600;4.694;2023-03-12T11:28:49;30.35;;;5.13;;
62724;SDS011;49026;52.600;4.694;2023-03-12T11:31:24;25.00;;;4.28;;
62724;SDS011;49026;52.600;4.694;2023-03-12T11:33:53;33.13;;;6.00;;
62724;SDS011;49026;52.600;4.694;2023-03-12T11:36:34;29.45;;;5.15;;
62724;SDS011;49026;52.600;4.694;2023-03-12T11:39:53;34.38;;;6.95;;
62724;SDS011;49026;52.600;4.694;2023-03-12T11:45:20;36.03;;;5.07;;
62724;SDS011;49026;52.600;4.694;2023-03-12T11:50:49;26.92;;;5.00;;
62724;SDS011;49026;52.600;4.694;2023-03-12T11:56:35;45.72;;;5.43;;
62724;SDS011;49026;52.600;4.694;2023-03-12T12:02:10;30.80;;;5.10;;
62724;SDS011;49026;52.600;4.694;2023-03-12T12:20:23;24.50;;;4.28;;
62724;SDS011;49026;52.600;4.694;2023-03-12T12:25:58;27.77;;;6.05;;
62724;SDS011;49026;52.600;4.694;2023-03-12T12:36:36;36.78;;;6.13;;
62724;SDS011;49026;52.600;4.694;2023-03-12T12:39:03;39.55;;;7.38;;
62724;SDS011;49026;52.600;4.694;2023-03-12T12:41:38;21.67;;;5.22;;
62724;SDS011;49026;52.600;4.694;2023-03-12T12:44:11;40.63;;;5.43;;
62724;SDS011;49026;52.600;4.694;2023-03-12T12:51:54;31.92;;;5.18;;
62724;SDS011;49026;52.600;4.694;2023-03-12T12:54:40;44.95;;;7.60;;
62724;SDS011;49026;52.600;4.694;2023-03-12T12:57:14;37.22;;;6.05;;
62724;SDS011;49026;52.600;4.694;2023-03-12T13:02:39;38.45;;;5.85;;
62724;SDS011;49026;52.600;4.694;2023-03-12T13:05:18;44.17;;;6.22;;
62724;SDS011;49026;52.600;4.694;2023-03-12T13:08:05;28.85;;;5.80;;
62724;SDS011;49026;52.600;4.694;2023-03-12T13:13:02;46.20;;;8.30;;
62724;SDS011;49026;52.600;4.694;2023-03-12T13:15:36;51.28;;;6.22;;
62724;SDS011;49026;52.600;4.694;2023-03-12T13:26:02;52.85;;;7.53;;
62724;SDS011;49026;52.600;4.694;2023-03-12T13:28:34;42.25;;;6.38;;
62724;SDS011;49026;52.600;4.694;2023-03-12T13:33:58;49.88;;;8.70;;
62724;SDS011;49026;52.600;4.694;2023-03-12T13:36:35;29.05;;;4.85;;
62724;SDS011;49026;52.600;4.694;2023-03-12T13:41:37;36.10;;;6.00;;
62724;SDS011;49026;52.600;4.694;2023-03-12T13:49:44;43.65;;;7.35;;
62724;SDS011;49026;52.600;4.694;2023-03-12T13:52:20;35.40;;;6.97;;
62724;SDS011;49026;52.600;4.694;2023-03-12T13:55:01;38.03;;;6.22;;
62724;SDS011;49026;52.600;4.694;2023-03-12T14:00:28;53.33;;;7.30;;
62724;SDS011;49026;52.600;4.694;2023-03-12T14:05:52;24.23;;;4.50;;
62724;SDS011;49026;52.600;4.694;2023-03-12T14:16:39;35.83;;;6.35;;
62724;SDS011;49026;52.600;4.694;2023-03-12T14:19:13;36.85;;;6.25;;
62724;SDS011;49026;52.600;4.694;2023-03-12T14:21:44;39.67;;;7.55;;
62724;SDS011;49026;52.600;4.694;2023-03-12T14:24:55;33.65;;;4.25;;
62724;SDS011;49026;52.600;4.694;2023-03-12T14:27:10;36.72;;;6.50;;
62724;SDS011;49026;52.600;4.694;2023-03-12T14:29:41;43.33;;;6.45;;
62724;SDS011;49026;52.600;4.694;2023-03-12T14:32:19;33.50;;;6.03;;
62724;SDS011;49026;52.600;4.694;2023-03-12T14:34:51;32.88;;;5.63;;
62724;SDS011;49026;52.600;4.694;2023-03-12T14:37:23;45.22;;;7.00;;
62724;SDS011;49026;52.600;4.694;2023-03-12T14:39:56;30.10;;;4.93;;
62724;SDS011;49026;52.600;4.694;2023-03-12T14:42:32;49.20;;;8.25;;
62724;SDS011;49026;52.600;4.694;2023-03-12T14:47:41;30.05;;;5.57;;
62724;SDS011;49026;52.600;4.694;2023-03-12T14:50:15;49.20;;;6.85;;
62724;SDS011;49026;52.600;4.694;2023-03-12T14:52:42;34.20;;;6.35;;
62724;SDS011;49026;52.600;4.694;2023-03-12T14:55:11;31.17;;;5.45;;
62724;SDS011;49026;52.600;4.694;2023-03-12T14:57:42;36.80;;;5.70;;
62724;SDS011;49026;52.600;4.694;2023-03-12T15:00:21;40.53;;;5.72;;
62724;SDS011;49026;52.600;4.694;2023-03-12T15:02:46;35.15;;;6.10;;
62724;SDS011;49026;52.600;4.694;2023-03-12T15:05:15;32.45;;;5.45;;
62724;SDS011;49026;52.600;4.694;2023-03-12T15:07:44;40.78;;;7.70;;
62724;SDS011;49026;52.600;4.694;2023-03-12T15:10:30;47.90;;;7.68;;
62724;SDS011;49026;52.600;4.694;2023-03-12T15:13:04;29.58;;;5.57;;
62724;SDS011;49026;52.600;4.694;2023-03-12T15:15:39;48.30;;;8.00;;
62724;SDS011;49026;52.600;4.694;2023-03-12T15:18:09;34.67;;;6.70;;
62724;SDS011;49026;52.600;4.694;2023-03-12T15:20:37;48.75;;;6.85;;
62724;SDS011;49026;52.600;4.694;2023-03-12T15:23:04;48.30;;;7.85;;
62724;SDS011;49026;52.600;4.694;2023-03-12T15:25:34;38.65;;;7.57;;
62724;SDS011;49026;52.600;4.694;2023-03-12T15:30:37;42.28;;;6.38;;
62724;SDS011;49026;52.600;4.694;2023-03-12T15:33:22;38.55;;;6.85;;
62724;SDS011;49026;52.600;4.694;2023-03-12T15:38:26;47.80;;;7.00;;
62724;SDS011;49026;52.600;4.694;2023-03-12T15:40:55;46.08;;;7.65;;
62724;SDS011;49026;52.600;4.694;2023-03-12T15:43:22;30.77;;;5.90;;
62724;SDS011;49026;52.600;4.694;2023-03-12T15:45:55;45.88;;;6.85;;
62724;SDS011;49026;52.600;4.694;2023-03-12T15:50:54;41.10;;;6.68;;
62724;SDS011;49026;52.600;4.694;2023-03-12T15:58:34;38.55;;;7.43;;
62724;SDS011;49026;52.600;4.694;2023-03-12T16:01:06;46.15;;;6.90;;
62724;SDS011;49026;52.600;4.694;2023-03-12T16:03:33;30.92;;;6.25;;
62724;SDS011;49026;52.600;4.694;2023-03-12T16:05:59;30.80;;;5.50;;
62724;SDS011;49026;52.600;4.694;2023-03-12T16:08:25;43.30;;;5.80;;
62724;SDS011;49026;52.600;4.694;2023-03-12T16:11:02;36.53;;;5.95;;
62724;SDS011;49026;52.600;4.694;2023-03-12T16:13:28;46.70;;;7.97;;
62724;SDS011;49026;52.600;4.694;2023-03-12T16:15:56;34.10;;;6.18;;
62724;SDS011;49026;52.600;4.694;2023-03-12T16:18:22;37.67;;;5.53;;
62724;SDS011;49026;52.600;4.694;2023-03-12T16:20:51;42.10;;;6.30;;
62724;SDS011;49026;52.600;4.694;2023-03-12T16:23:17;44.97;;;7.20;;
62724;SDS011;49026;52.600;4.694;2023-03-12T16:25:44;40.40;;;6.85;;
62724;SDS011;49026;52.600;4.694;2023-03-12T16:28:16;41.25;;;5.95;;
62724;SDS011;49026;52.600;4.694;2023-03-12T16:30:44;41.22;;;6.03;;
62724;SDS011;49026;52.600;4.694;2023-03-12T16:33:13;43.30;;;6.63;;
62724;SDS011;49026;52.600;4.694;2023-03-12T16:35:41;49.08;;;6.78;;
62724;SDS011;49026;52.600;4.694;2023-03-12T16:38:07;40.40;;;6.57;;
62724;SDS011;49026;52.600;4.694;2023-03-12T16:40:35;53.60;;;7.68;;
62724;SDS011;49026;52.600;4.694;2023-03-12T16:43:02;40.03;;;7.60;;
62724;SDS011;49026;52.600;4.694;2023-03-12T16:45:31;43.00;;;6.53;;
62724;SDS011;49026;52.600;4.694;2023-03-12T16:48:03;39.08;;;5.43;;
62724;SDS011;49026;52.600;4.694;2023-03-12T16:50:29;54.78;;;8.15;;
62724;SDS011;49026;52.600;4.694;2023-03-12T16:52:55;43.65;;;7.20;;
62724;SDS011;49026;52.600;4.694;2023-03-12T16:55:22;55.53;;;6.90;;
62724;SDS011;49026;52.600;4.694;2023-03-12T16:57:59;32.75;;;6.60;;
62724;SDS011;49026;52.600;4.694;2023-03-12T17:00:29;35.83;;;5.57;;
62724;SDS011;49026;52.600;4.694;2023-03-12T17:02:57;46.80;;;5.28;;
62724;SDS011;49026;52.600;4.694;2023-03-12T17:05:23;57.30;;;7.80;;
62724;SDS011;49026;52.600;4.694;2023-03-12T17:07:50;52.97;;;8.15;;